sensor_id;sensor_type;location;lat;lon;timestamp;temperature;humidity
2967;DHT22;1493;51.496;7.210;2022-10-16T00:01:14;14.40;99.90
2967;DHT22;1493;51.496;7.210;2022-10-16T00:03:44;14.40;99.90
2967;DHT22;1493;51.496;7.210;2022-10-16T00:06:11;14.40;99.90
2967;DHT22;1493;51.496;7.210;2022-10-16T00:08:39;14.40;99.90
2967;DHT22;1493;51.496;7.210;2022-10-16T00:11:07;14.40;99.90
2967;DHT22;1493;51.496;7.210;2022-10-16T00:13:37;14.40;99.90
2967;DHT22;1493;51.496;7.210;2022-10-16T00:16:05;14.30;99.90
2967;DHT22;1493;51.496;7.210;2022-10-16T00:18:32;14.30;99.90
2967;DHT22;1493;51.496;7.210;2022-10-16T00:21:04;14.30;99.90
2967;DHT22;1493;51.496;7.210;2022-10-16T00:23:33;14.30;99.90
2967;DHT22;1493;51.496;7.210;2022-10-16T00:26:03;14.30;99.90
2967;DHT22;1493;51.496;7.210;2022-10-16T00:28:30;14.30;99.90
2967;DHT22;1493;51.496;7.210;2022-10-16T00:31:02;14.20;99.90
2967;DHT22;1493;51.496;7.210;2022-10-16T00:33:30;14.20;99.90
2967;DHT22;1493;51.496;7.210;2022-10-16T00:35:57;14.20;99.90
2967;DHT22;1493;51.496;7.210;2022-10-16T00:38:26;14.20;99.90
2967;DHT22;1493;51.496;7.210;2022-10-16T00:40:53;14.20;99.90
2967;DHT22;1493;51.496;7.210;2022-10-16T00:43:35;14.20;99.90
2967;DHT22;1493;51.496;7.210;2022-10-16T00:46:07;14.20;99.90
2967;DHT22;1493;51.496;7.210;2022-10-16T00:48:35;14.20;99.90
2967;DHT22;1493;51.496;7.210;2022-10-16T00:51:02;14.10;99.90
2967;DHT22;1493;51.496;7.210;2022-10-16T00:53:33;14.10;99.90
2967;DHT22;1493;51.496;7.210;2022-10-16T00:56:00;14.10;99.90
2967;DHT22;1493;51.496;7.210;2022-10-16T00:58:28;14.10;99.90
2967;DHT22;1493;51.496;7.210;2022-10-16T01:00:54;14.10;99.90
2967;DHT22;1493;51.496;7.210;2022-10-16T01:03:24;14.10;99.90
2967;DHT22;1493;51.496;7.210;2022-10-16T01:05:59;14.10;99.90
2967;DHT22;1493;51.496;7.210;2022-10-16T01:08:41;14.10;99.90
2967;DHT22;1493;51.496;7.210;2022-10-16T01:11:15;14.10;99.90
2967;DHT22;1493;51.496;7.210;2022-10-16T01:13:47;14.00;99.90
2967;DHT22;1493;51.496;7.210;2022-10-16T01:16:19;14.00;99.90
2967;DHT22;1493;51.496;7.210;2022-10-16T01:18:52;14.10;99.90
2967;DHT22;1493;51.496;7.210;2022-10-16T01:21:23;14.00;99.90
2967;DHT22;1493;51.496;7.210;2022-10-16T01:24:01;14.00;99.90
2967;DHT22;1493;51.496;7.210;2022-10-16T01:26:43;14.00;99.90
2967;DHT22;1493;51.496;7.210;2022-10-16T01:29:18;14.00;99.90
2967;DHT22;1493;51.496;7.210;2022-10-16T01:31:49;14.00;99.90
2967;DHT22;1493;51.496;7.210;2022-10-16T01:34:20;14.00;99.90
2967;DHT22;1493;51.496;7.210;2022-10-16T01:36:51;14.00;99.90
2967;DHT22;1493;51.496;7.210;2022-10-16T01:39:22;14.00;99.90
2967;DHT22;1493;51.496;7.210;2022-10-16T01:41:57;13.90;99.90
2967;DHT22;1493;51.496;7.210;2022-10-16T01:44:29;13.90;99.90
2967;DHT22;1493;51.496;7.210;2022-10-16T01:46:58;13.90;99.90
2967;DHT22;1493;51.496;7.210;2022-10-16T01:49:29;13.90;99.90
2967;DHT22;1493;51.496;7.210;2022-10-16T01:51:58;13.90;99.90
2967;DHT22;1493;51.496;7.210;2022-10-16T01:54:28;13.90;99.90
2967;DHT22;1493;51.496;7.210;2022-10-16T01:56:58;13.90;99.90
2967;DHT22;1493;51.496;7.210;2022-10-16T01:59:30;13.90;99.90
2967;DHT22;1493;51.496;7.210;2022-10-16T02:02:00;13.90;99.90
2967;DHT22;1493;51.496;7.210;2022-10-16T02:04:32;13.90;99.90
2967;DHT22;1493;51.496;7.210;2022-10-16T02:06:59;13.90;99.90
2967;DHT22;1493;51.496;7.210;2022-10-16T02:09:26;13.80;99.90
2967;DHT22;1493;51.496;7.210;2022-10-16T02:11:55;13.80;99.90
2967;DHT22;1493;51.496;7.210;2022-10-16T02:14:23;13.80;99.90
2967;DHT22;1493;51.496;7.210;2022-10-16T02:16:52;13.80;99.90
2967;DHT22;1493;51.496;7.210;2022-10-16T02:19:20;13.80;99.90
2967;DHT22;1493;51.496;7.210;2022-10-16T02:21:51;13.90;99.90
2967;DHT22;1493;51.496;7.210;2022-10-16T02:24:26;13.90;99.90
2967;DHT22;1493;51.496;7.210;2022-10-16T02:27:00;13.90;99.90
2967;DHT22;1493;51.496;7.210;2022-10-16T02:29:29;13.90;99.90
2967;DHT22;1493;51.496;7.210;2022-10-16T02:32:00;13.90;99.90
2967;DHT22;1493;51.496;7.210;2022-10-16T02:34:30;13.90;99.90
2967;DHT22;1493;51.496;7.210;2022-10-16T02:36:58;13.90;99.90
2967;DHT22;1493;51.496;7.210;2022-10-16T02:39:27;13.90;99.90
2967;DHT22;1493;51.496;7.210;2022-10-16T02:41:54;13.90;99.90
2967;DHT22;1493;51.496;7.210;2022-10-16T02:44:21;13.90;99.90
2967;DHT22;1493;51.496;7.210;2022-10-16T02:46:48;14.00;99.90
2967;DHT22;1493;51.496;7.210;2022-10-16T02:49:16;14.00;99.90
2967;DHT22;1493;51.496;7.210;2022-10-16T02:51:43;14.00;99.90
2967;DHT22;1493;51.496;7.210;2022-10-16T02:54:10;14.00;99.90
2967;DHT22;1493;51.496;7.210;2022-10-16T02:56:38;14.10;99.90
2967;DHT22;1493;51.496;7.210;2022-10-16T02:59:05;14.10;99.90
2967;DHT22;1493;51.496;7.210;2022-10-16T03:01:32;14.10;99.90
2967;DHT22;1493;51.496;7.210;2022-10-16T03:03:58;14.10;99.90
2967;DHT22;1493;51.496;7.210;2022-10-16T03:06:26;14.10;99.90
2967;DHT22;1493;51.496;7.210;2022-10-16T03:08:53;14.10;99.90
2967;DHT22;1493;51.496;7.210;2022-10-16T03:11:20;14.10;99.90
2967;DHT22;1493;51.496;7.210;2022-10-16T03:13:47;14.10;99.90
2967;DHT22;1493;51.496;7.210;2022-10-16T03:16:14;14.10;99.90
2967;DHT22;1493;51.496;7.210;2022-10-16T03:18:40;14.10;99.90
2967;DHT22;1493;51.496;7.210;2022-10-16T03:21:07;14.10;99.90
2967;DHT22;1493;51.496;7.210;2022-10-16T03:23:35;14.10;99.90
2967;DHT22;1493;51.496;7.210;2022-10-16T03:26:02;14.10;99.90
2967;DHT22;1493;51.496;7.210;2022-10-16T03:28:29;14.10;99.90
2967;DHT22;1493;51.496;7.210;2022-10-16T03:30:56;14.00;99.90
2967;DHT22;1493;51.496;7.210;2022-10-16T03:33:22;14.10;99.90
2967;DHT22;1493;51.496;7.210;2022-10-16T03:35:53;14.10;99.90
2967;DHT22;1493;51.496;7.210;2022-10-16T03:38:20;14.10;99.90
2967;DHT22;1493;51.496;7.210;2022-10-16T03:40:49;14.10;99.90
2967;DHT22;1493;51.496;7.210;2022-10-16T03:43:15;14.10;99.90
2967;DHT22;1493;51.496;7.210;2022-10-16T03:45:42;14.10;99.90
2967;DHT22;1493;51.496;7.210;2022-10-16T03:48:09;14.10;99.90
2967;DHT22;1493;51.496;7.210;2022-10-16T03:50:36;14.10;99.90
2967;DHT22;1493;51.496;7.210;2022-10-16T03:53:03;14.00;99.90
2967;DHT22;1493;51.496;7.210;2022-10-16T03:55:30;14.10;99.90
2967;DHT22;1493;51.496;7.210;2022-10-16T03:57:58;14.10;99.90
2967;DHT22;1493;51.496;7.210;2022-10-16T04:00:25;14.00;99.90
2967;DHT22;1493;51.496;7.210;2022-10-16T04:02:51;14.00;99.90
2967;DHT22;1493;51.496;7.210;2022-10-16T04:05:18;14.00;99.90
2967;DHT22;1493;51.496;7.210;2022-10-16T04:07:45;14.00;99.90
2967;DHT22;1493;51.496;7.210;2022-10-16T04:10:12;13.90;99.90
2967;DHT22;1493;51.496;7.210;2022-10-16T04:12:39;13.90;99.90
2967;DHT22;1493;51.496;7.210;2022-10-16T04:15:08;13.90;99.90
2967;DHT22;1493;51.496;7.210;2022-10-16T04:17:35;13.90;99.90
2967;DHT22;1493;51.496;7.210;2022-10-16T04:20:02;13.90;99.90
2967;DHT22;1493;51.496;7.210;2022-10-16T04:22:29;13.80;99.90
2967;DHT22;1493;51.496;7.210;2022-10-16T04:24:56;13.80;99.90
2967;DHT22;1493;51.496;7.210;2022-10-16T04:27:23;13.80;99.90
2967;DHT22;1493;51.496;7.210;2022-10-16T04:29:49;13.80;99.90
2967;DHT22;1493;51.496;7.210;2022-10-16T04:32:18;13.80;99.90
2967;DHT22;1493;51.496;7.210;2022-10-16T04:34:44;13.80;99.90
2967;DHT22;1493;51.496;7.210;2022-10-16T04:37:11;13.80;99.90
2967;DHT22;1493;51.496;7.210;2022-10-16T04:39:38;13.80;99.90
2967;DHT22;1493;51.496;7.210;2022-10-16T04:42:05;13.80;99.90
2967;DHT22;1493;51.496;7.210;2022-10-16T04:44:32;13.80;99.90
2967;DHT22;1493;51.496;7.210;2022-10-16T04:46:58;13.80;99.90
2967;DHT22;1493;51.496;7.210;2022-10-16T04:49:26;13.70;99.90
2967;DHT22;1493;51.496;7.210;2022-10-16T04:51:53;13.60;99.90
2967;DHT22;1493;51.496;7.210;2022-10-16T04:54:20;13.70;99.90
2967;DHT22;1493;51.496;7.210;2022-10-16T04:56:47;13.70;99.90
2967;DHT22;1493;51.496;7.210;2022-10-16T04:59:16;13.70;99.90
2967;DHT22;1493;51.496;7.210;2022-10-16T05:01:43;13.70;99.90
2967;DHT22;1493;51.496;7.210;2022-10-16T05:04:10;13.60;99.90
2967;DHT22;1493;51.496;7.210;2022-10-16T05:06:38;13.70;99.90
2967;DHT22;1493;51.496;7.210;2022-10-16T05:09:08;13.70;99.90
2967;DHT22;1493;51.496;7.210;2022-10-16T05:11:35;13.70;99.90
2967;DHT22;1493;51.496;7.210;2022-10-16T05:14:02;13.70;99.90
2967;DHT22;1493;51.496;7.210;2022-10-16T05:16:29;13.70;99.90
2967;DHT22;1493;51.496;7.210;2022-10-16T05:18:56;13.70;99.90
2967;DHT22;1493;51.496;7.210;2022-10-16T05:21:23;13.70;99.90
2967;DHT22;1493;51.496;7.210;2022-10-16T05:23:53;13.80;99.90
2967;DHT22;1493;51.496;7.210;2022-10-16T05:26:19;13.80;99.90
2967;DHT22;1493;51.496;7.210;2022-10-16T05:28:47;13.80;99.90
2967;DHT22;1493;51.496;7.210;2022-10-16T05:31:14;13.80;99.90
2967;DHT22;1493;51.496;7.210;2022-10-16T05:33:41;13.80;99.90
2967;DHT22;1493;51.496;7.210;2022-10-16T05:36:09;13.80;99.90
2967;DHT22;1493;51.496;7.210;2022-10-16T05:38:37;13.80;99.90
2967;DHT22;1493;51.496;7.210;2022-10-16T05:41:05;13.90;99.90
2967;DHT22;1493;51.496;7.210;2022-10-16T05:43:32;13.90;99.90
2967;DHT22;1493;51.496;7.210;2022-10-16T05:46:00;13.80;99.90
2967;DHT22;1493;51.496;7.210;2022-10-16T05:48:28;13.90;99.90
2967;DHT22;1493;51.496;7.210;2022-10-16T05:50:58;13.90;99.90
2967;DHT22;1493;51.496;7.210;2022-10-16T05:53:26;13.90;99.90
2967;DHT22;1493;51.496;7.210;2022-10-16T05:55:53;13.80;99.90
2967;DHT22;1493;51.496;7.210;2022-10-16T05:58:22;13.90;99.90
2967;DHT22;1493;51.496;7.210;2022-10-16T06:00:55;13.80;99.90
2967;DHT22;1493;51.496;7.210;2022-10-16T06:03:22;13.80;99.90
2967;DHT22;1493;51.496;7.210;2022-10-16T06:05:49;13.90;99.90
2967;DHT22;1493;51.496;7.210;2022-10-16T06:08:16;13.90;99.90
2967;DHT22;1493;51.496;7.210;2022-10-16T06:10:43;13.90;99.90
2967;DHT22;1493;51.496;7.210;2022-10-16T06:13:10;13.90;99.90
2967;DHT22;1493;51.496;7.210;2022-10-16T06:15:39;13.90;99.90
2967;DHT22;1493;51.496;7.210;2022-10-16T06:18:07;13.90;99.90
2967;DHT22;1493;51.496;7.210;2022-10-16T06:20:34;13.90;99.90
2967;DHT22;1493;51.496;7.210;2022-10-16T06:23:01;13.90;99.90
2967;DHT22;1493;51.496;7.210;2022-10-16T06:25:29;13.90;99.90
2967;DHT22;1493;51.496;7.210;2022-10-16T06:27:56;13.90;99.90
2967;DHT22;1493;51.496;7.210;2022-10-16T06:30:23;13.80;99.90
2967;DHT22;1493;51.496;7.210;2022-10-16T06:32:51;13.80;99.90
2967;DHT22;1493;51.496;7.210;2022-10-16T06:35:18;13.80;99.90
2967;DHT22;1493;51.496;7.210;2022-10-16T06:37:45;13.80;99.90
2967;DHT22;1493;51.496;7.210;2022-10-16T06:40:11;13.90;99.90
2967;DHT22;1493;51.496;7.210;2022-10-16T06:42:40;13.80;99.90
2967;DHT22;1493;51.496;7.210;2022-10-16T06:45:07;13.90;99.90
2967;DHT22;1493;51.496;7.210;2022-10-16T06:47:34;13.90;99.90
2967;DHT22;1493;51.496;7.210;2022-10-16T06:50:03;13.90;99.90
2967;DHT22;1493;51.496;7.210;2022-10-16T06:52:31;14.00;99.90
2967;DHT22;1493;51.496;7.210;2022-10-16T06:54:58;14.00;99.90
2967;DHT22;1493;51.496;7.210;2022-10-16T06:57:25;14.10;99.90
2967;DHT22;1493;51.496;7.210;2022-10-16T06:59:52;14.10;99.90
2967;DHT22;1493;51.496;7.210;2022-10-16T07:02:19;14.10;99.90
2967;DHT22;1493;51.496;7.210;2022-10-16T07:04:46;14.20;99.90
2967;DHT22;1493;51.496;7.210;2022-10-16T07:07:14;14.20;99.90
2967;DHT22;1493;51.496;7.210;2022-10-16T07:09:41;14.30;99.90
2967;DHT22;1493;51.496;7.210;2022-10-16T07:12:08;14.20;99.90
2967;DHT22;1493;51.496;7.210;2022-10-16T07:14:34;14.20;99.90
2967;DHT22;1493;51.496;7.210;2022-10-16T07:17:02;14.20;99.90
2967;DHT22;1493;51.496;7.210;2022-10-16T07:19:29;14.30;99.90
2967;DHT22;1493;51.496;7.210;2022-10-16T07:21:55;14.30;99.90
2967;DHT22;1493;51.496;7.210;2022-10-16T07:24:24;14.30;99.90
2967;DHT22;1493;51.496;7.210;2022-10-16T07:26:51;14.30;99.90
2967;DHT22;1493;51.496;7.210;2022-10-16T07:29:19;14.20;99.90
2967;DHT22;1493;51.496;7.210;2022-10-16T07:31:48;14.30;99.90
2967;DHT22;1493;51.496;7.210;2022-10-16T07:34:17;14.30;99.90
2967;DHT22;1493;51.496;7.210;2022-10-16T07:36:46;14.30;99.90
2967;DHT22;1493;51.496;7.210;2022-10-16T07:39:13;14.30;99.90
2967;DHT22;1493;51.496;7.210;2022-10-16T07:41:41;14.30;99.90
2967;DHT22;1493;51.496;7.210;2022-10-16T07:44:08;14.30;99.90
2967;DHT22;1493;51.496;7.210;2022-10-16T07:46:35;14.40;99.90
2967;DHT22;1493;51.496;7.210;2022-10-16T07:49:02;14.40;99.90
2967;DHT22;1493;51.496;7.210;2022-10-16T07:51:29;14.40;99.90
2967;DHT22;1493;51.496;7.210;2022-10-16T07:53:56;14.40;99.90
2967;DHT22;1493;51.496;7.210;2022-10-16T07:56:23;14.40;99.90
2967;DHT22;1493;51.496;7.210;2022-10-16T07:58:51;14.50;99.90
2967;DHT22;1493;51.496;7.210;2022-10-16T08:01:19;14.60;99.90
2967;DHT22;1493;51.496;7.210;2022-10-16T08:03:48;14.60;99.90
2967;DHT22;1493;51.496;7.210;2022-10-16T08:06:15;14.60;99.90
2967;DHT22;1493;51.496;7.210;2022-10-16T08:08:42;14.70;99.90
2967;DHT22;1493;51.496;7.210;2022-10-16T08:11:09;14.80;99.90
2967;DHT22;1493;51.496;7.210;2022-10-16T08:13:36;14.80;99.90
2967;DHT22;1493;51.496;7.210;2022-10-16T08:16:04;14.90;99.90
2967;DHT22;1493;51.496;7.210;2022-10-16T08:18:33;14.90;99.90
2967;DHT22;1493;51.496;7.210;2022-10-16T08:21:00;15.00;99.90
2967;DHT22;1493;51.496;7.210;2022-10-16T08:23:27;15.00;99.90
2967;DHT22;1493;51.496;7.210;2022-10-16T08:25:55;15.10;99.90
2967;DHT22;1493;51.496;7.210;2022-10-16T08:28:23;15.10;99.90
2967;DHT22;1493;51.496;7.210;2022-10-16T08:30:49;15.10;99.90
2967;DHT22;1493;51.496;7.210;2022-10-16T08:33:18;15.20;99.90
2967;DHT22;1493;51.496;7.210;2022-10-16T08:35:51;15.30;99.90
2967;DHT22;1493;51.496;7.210;2022-10-16T08:38:19;15.30;99.90
2967;DHT22;1493;51.496;7.210;2022-10-16T08:40:46;15.40;99.90
2967;DHT22;1493;51.496;7.210;2022-10-16T08:43:36;15.40;99.90
2967;DHT22;1493;51.496;7.210;2022-10-16T08:46:27;15.40;99.90
2967;DHT22;1493;51.496;7.210;2022-10-16T08:49:02;15.40;99.90
2967;DHT22;1493;51.496;7.210;2022-10-16T08:51:32;15.60;99.90
2967;DHT22;1493;51.496;7.210;2022-10-16T08:54:03;15.60;99.90
2967;DHT22;1493;51.496;7.210;2022-10-16T08:56:31;15.60;99.90
2967;DHT22;1493;51.496;7.210;2022-10-16T08:58:59;15.70;99.90
2967;DHT22;1493;51.496;7.210;2022-10-16T09:01:36;15.70;99.90
2967;DHT22;1493;51.496;7.210;2022-10-16T09:04:45;15.80;99.90
2967;DHT22;1493;51.496;7.210;2022-10-16T09:07:20;15.90;99.90
2967;DHT22;1493;51.496;7.210;2022-10-16T09:10:06;16.00;99.90
2967;DHT22;1493;51.496;7.210;2022-10-16T09:12:39;16.00;99.90
2967;DHT22;1493;51.496;7.210;2022-10-16T09:15:17;16.10;99.90
2967;DHT22;1493;51.496;7.210;2022-10-16T09:17:54;16.10;99.90
2967;DHT22;1493;51.496;7.210;2022-10-16T09:20:30;16.20;99.90
2967;DHT22;1493;51.496;7.210;2022-10-16T09:23:13;16.20;99.90
2967;DHT22;1493;51.496;7.210;2022-10-16T09:25:44;16.30;99.90
2967;DHT22;1493;51.496;7.210;2022-10-16T09:28:13;16.30;99.90
2967;DHT22;1493;51.496;7.210;2022-10-16T09:30:43;16.30;99.90
2967;DHT22;1493;51.496;7.210;2022-10-16T09:33:11;16.50;99.90
2967;DHT22;1493;51.496;7.210;2022-10-16T09:35:44;16.60;99.90
2967;DHT22;1493;51.496;7.210;2022-10-16T09:38:22;16.70;99.90
2967;DHT22;1493;51.496;7.210;2022-10-16T09:40:49;16.90;99.90
2967;DHT22;1493;51.496;7.210;2022-10-16T09:43:21;16.90;99.90
2967;DHT22;1493;51.496;7.210;2022-10-16T09:45:57;16.80;99.90
2967;DHT22;1493;51.496;7.210;2022-10-16T09:48:27;16.90;99.90
2967;DHT22;1493;51.496;7.210;2022-10-16T09:51:01;16.90;99.90
2967;DHT22;1493;51.496;7.210;2022-10-16T09:53:39;16.90;99.90
2967;DHT22;1493;51.496;7.210;2022-10-16T09:56:06;16.80;99.90
2967;DHT22;1493;51.496;7.210;2022-10-16T09:58:33;16.90;99.90
2967;DHT22;1493;51.496;7.210;2022-10-16T10:01:00;17.00;99.90
2967;DHT22;1493;51.496;7.210;2022-10-16T10:03:38;17.00;99.90
2967;DHT22;1493;51.496;7.210;2022-10-16T10:06:21;17.20;99.90
2967;DHT22;1493;51.496;7.210;2022-10-16T10:09:00;17.30;99.90
2967;DHT22;1493;51.496;7.210;2022-10-16T10:11:43;17.30;99.90
2967;DHT22;1493;51.496;7.210;2022-10-16T10:14:25;17.50;99.90
2967;DHT22;1493;51.496;7.210;2022-10-16T10:17:06;17.70;99.90
2967;DHT22;1493;51.496;7.210;2022-10-16T10:19:38;18.30;99.90
2967;DHT22;1493;51.496;7.210;2022-10-16T10:22:22;18.70;99.90
2967;DHT22;1493;51.496;7.210;2022-10-16T10:25:12;19.40;99.90
2967;DHT22;1493;51.496;7.210;2022-10-16T10:27:54;19.60;99.90
2967;DHT22;1493;51.496;7.210;2022-10-16T10:30:32;19.80;99.90
2967;DHT22;1493;51.496;7.210;2022-10-16T10:33:13;20.10;99.90
2967;DHT22;1493;51.496;7.210;2022-10-16T10:36:05;20.70;99.90
2967;DHT22;1493;51.496;7.210;2022-10-16T10:38:44;21.20;99.90
2967;DHT22;1493;51.496;7.210;2022-10-16T10:41:34;21.40;99.90
2967;DHT22;1493;51.496;7.210;2022-10-16T10:44:13;21.80;99.90
2967;DHT22;1493;51.496;7.210;2022-10-16T10:46:45;22.20;99.90
2967;DHT22;1493;51.496;7.210;2022-10-16T10:49:33;22.60;99.90
2967;DHT22;1493;51.496;7.210;2022-10-16T10:52:13;22.80;99.90
2967;DHT22;1493;51.496;7.210;2022-10-16T10:54:51;22.90;99.90
2967;DHT22;1493;51.496;7.210;2022-10-16T10:57:29;23.30;99.90
2967;DHT22;1493;51.496;7.210;2022-10-16T11:00:07;23.80;99.90
2967;DHT22;1493;51.496;7.210;2022-10-16T11:02:41;23.80;99.90
2967;DHT22;1493;51.496;7.210;2022-10-16T11:05:32;23.90;99.90
2967;DHT22;1493;51.496;7.210;2022-10-16T11:08:09;23.60;99.90
2967;DHT22;1493;51.496;7.210;2022-10-16T11:10:44;24.00;99.90
2967;DHT22;1493;51.496;7.210;2022-10-16T11:13:21;24.00;99.90
2967;DHT22;1493;51.496;7.210;2022-10-16T11:15:52;24.40;99.90
2967;DHT22;1493;51.496;7.210;2022-10-16T11:18:24;25.00;99.90
2967;DHT22;1493;51.496;7.210;2022-10-16T11:20:59;25.20;99.90
2967;DHT22;1493;51.496;7.210;2022-10-16T11:23:30;25.80;99.90
2967;DHT22;1493;51.496;7.210;2022-10-16T11:26:04;26.30;99.90
2967;DHT22;1493;51.496;7.210;2022-10-16T11:28:35;26.40;99.90
2967;DHT22;1493;51.496;7.210;2022-10-16T11:31:08;26.40;99.90
2967;DHT22;1493;51.496;7.210;2022-10-16T11:33:41;26.70;99.90
2967;DHT22;1493;51.496;7.210;2022-10-16T11:36:16;26.40;99.90
2967;DHT22;1493;51.496;7.210;2022-10-16T11:38:49;26.10;99.90
2967;DHT22;1493;51.496;7.210;2022-10-16T11:41:25;27.00;99.90
2967;DHT22;1493;51.496;7.210;2022-10-16T11:44:09;28.00;99.90
2967;DHT22;1493;51.496;7.210;2022-10-16T11:46:50;28.90;99.90
2967;DHT22;1493;51.496;7.210;2022-10-16T11:49:22;29.20;94.80
2967;DHT22;1493;51.496;7.210;2022-10-16T11:51:56;30.00;96.60
2967;DHT22;1493;51.496;7.210;2022-10-16T11:54:33;29.10;90.60
2967;DHT22;1493;51.496;7.210;2022-10-16T11:57:09;28.40;94.10
2967;DHT22;1493;51.496;7.210;2022-10-16T11:59:44;28.80;93.70
2967;DHT22;1493;51.496;7.210;2022-10-16T12:02:31;29.60;93.60
2967;DHT22;1493;51.496;7.210;2022-10-16T12:05:12;30.20;84.10
2967;DHT22;1493;51.496;7.210;2022-10-16T12:07:50;31.40;82.20
2967;DHT22;1493;51.496;7.210;2022-10-16T12:10:23;31.30;78.10
2967;DHT22;1493;51.496;7.210;2022-10-16T12:12:52;32.00;85.30
2967;DHT22;1493;51.496;7.210;2022-10-16T12:15:22;32.50;77.50
2967;DHT22;1493;51.496;7.210;2022-10-16T12:17:50;32.80;72.00
2967;DHT22;1493;51.496;7.210;2022-10-16T12:20:26;33.30;71.50
2967;DHT22;1493;51.496;7.210;2022-10-16T12:22:57;33.20;71.20
2967;DHT22;1493;51.496;7.210;2022-10-16T12:25:27;32.40;64.90
2967;DHT22;1493;51.496;7.210;2022-10-16T12:27:59;31.00;65.60
2967;DHT22;1493;51.496;7.210;2022-10-16T12:30:28;30.70;68.60
2967;DHT22;1493;51.496;7.210;2022-10-16T12:32:57;30.90;69.50
2967;DHT22;1493;51.496;7.210;2022-10-16T12:35:27;31.40;73.20
2967;DHT22;1493;51.496;7.210;2022-10-16T12:38:05;31.30;74.40
2967;DHT22;1493;51.496;7.210;2022-10-16T12:40:35;30.00;69.70
2967;DHT22;1493;51.496;7.210;2022-10-16T12:43:26;30.10;72.30
2967;DHT22;1493;51.496;7.210;2022-10-16T12:46:05;28.80;74.30
2967;DHT22;1493;51.496;7.210;2022-10-16T12:48:34;27.50;75.90
2967;DHT22;1493;51.496;7.210;2022-10-16T12:51:10;26.70;83.00
2967;DHT22;1493;51.496;7.210;2022-10-16T12:53:38;26.20;93.80
2967;DHT22;1493;51.496;7.210;2022-10-16T12:56:13;25.90;99.90
2967;DHT22;1493;51.496;7.210;2022-10-16T12:59:10;25.40;99.90
2967;DHT22;1493;51.496;7.210;2022-10-16T13:02:00;24.70;99.90
2967;DHT22;1493;51.496;7.210;2022-10-16T13:04:51;24.50;99.90
2967;DHT22;1493;51.496;7.210;2022-10-16T13:07:44;24.30;99.90
2967;DHT22;1493;51.496;7.210;2022-10-16T13:10:23;24.50;99.90
2967;DHT22;1493;51.496;7.210;2022-10-16T13:13:13;25.00;99.90
2967;DHT22;1493;51.496;7.210;2022-10-16T13:15:59;25.70;99.90
2967;DHT22;1493;51.496;7.210;2022-10-16T13:18:36;26.30;99.90
2967;DHT22;1493;51.496;7.210;2022-10-16T13:21:17;26.90;99.30
2967;DHT22;1493;51.496;7.210;2022-10-16T13:23:53;27.00;99.90
2967;DHT22;1493;51.496;7.210;2022-10-16T13:26:28;26.50;99.90
2967;DHT22;1493;51.496;7.210;2022-10-16T13:29:03;26.60;98.60
2967;DHT22;1493;51.496;7.210;2022-10-16T13:31:32;27.30;97.00
2967;DHT22;1493;51.496;7.210;2022-10-16T13:34:00;27.00;92.20
2967;DHT22;1493;51.496;7.210;2022-10-16T13:36:29;27.70;92.30
2967;DHT22;1493;51.496;7.210;2022-10-16T13:39:13;27.90;97.20
2967;DHT22;1493;51.496;7.210;2022-10-16T13:41:40;27.20;92.10
2967;DHT22;1493;51.496;7.210;2022-10-16T13:44:14;26.20;92.40
2967;DHT22;1493;51.496;7.210;2022-10-16T13:46:43;25.50;96.20
2967;DHT22;1493;51.496;7.210;2022-10-16T13:49:15;24.70;99.90
2967;DHT22;1493;51.496;7.210;2022-10-16T13:51:53;24.30;99.90
2967;DHT22;1493;51.496;7.210;2022-10-16T13:54:21;23.80;99.90
2967;DHT22;1493;51.496;7.210;2022-10-16T13:56:48;23.40;99.90
2967;DHT22;1493;51.496;7.210;2022-10-16T13:59:24;23.20;99.90
2967;DHT22;1493;51.496;7.210;2022-10-16T14:01:55;23.00;99.90
2967;DHT22;1493;51.496;7.210;2022-10-16T14:04:23;22.60;99.90
2967;DHT22;1493;51.496;7.210;2022-10-16T14:06:52;22.30;99.90
2967;DHT22;1493;51.496;7.210;2022-10-16T14:09:23;22.00;99.90
2967;DHT22;1493;51.496;7.210;2022-10-16T14:11:53;21.70;99.90
2967;DHT22;1493;51.496;7.210;2022-10-16T14:14:22;21.40;99.90
2967;DHT22;1493;51.496;7.210;2022-10-16T14:16:53;21.40;99.90
2967;DHT22;1493;51.496;7.210;2022-10-16T14:19:22;21.30;99.90
2967;DHT22;1493;51.496;7.210;2022-10-16T14:21:50;21.10;99.90
2967;DHT22;1493;51.496;7.210;2022-10-16T14:24:32;21.10;99.90
2967;DHT22;1493;51.496;7.210;2022-10-16T14:27:00;20.90;99.90
2967;DHT22;1493;51.496;7.210;2022-10-16T14:29:29;20.70;99.90
2967;DHT22;1493;51.496;7.210;2022-10-16T14:31:59;20.50;99.90
2967;DHT22;1493;51.496;7.210;2022-10-16T14:34:31;20.50;99.90
2967;DHT22;1493;51.496;7.210;2022-10-16T14:37:00;20.30;99.90
2967;DHT22;1493;51.496;7.210;2022-10-16T14:39:33;20.10;99.90
2967;DHT22;1493;51.496;7.210;2022-10-16T14:42:00;20.00;99.90
2967;DHT22;1493;51.496;7.210;2022-10-16T14:44:31;19.80;99.90
2967;DHT22;1493;51.496;7.210;2022-10-16T14:47:07;19.70;99.90
2967;DHT22;1493;51.496;7.210;2022-10-16T14:49:35;19.60;99.90
2967;DHT22;1493;51.496;7.210;2022-10-16T14:52:04;19.50;99.90
2967;DHT22;1493;51.496;7.210;2022-10-16T14:54:31;19.40;99.90
2967;DHT22;1493;51.496;7.210;2022-10-16T14:56:58;19.40;99.90
2967;DHT22;1493;51.496;7.210;2022-10-16T14:59:29;19.40;99.90
2967;DHT22;1493;51.496;7.210;2022-10-16T15:02:00;19.40;99.90
2967;DHT22;1493;51.496;7.210;2022-10-16T15:04:27;19.30;99.90
2967;DHT22;1493;51.496;7.210;2022-10-16T15:06:53;19.30;99.90
2967;DHT22;1493;51.496;7.210;2022-10-16T15:09:20;19.30;99.90
2967;DHT22;1493;51.496;7.210;2022-10-16T15:11:47;19.20;99.90
2967;DHT22;1493;51.496;7.210;2022-10-16T15:14:14;19.10;99.90
2967;DHT22;1493;51.496;7.210;2022-10-16T15:16:41;19.10;99.90
2967;DHT22;1493;51.496;7.210;2022-10-16T15:19:11;19.00;99.90
2967;DHT22;1493;51.496;7.210;2022-10-16T15:21:37;18.90;99.90
2967;DHT22;1493;51.496;7.210;2022-10-16T15:24:10;18.90;99.90
2967;DHT22;1493;51.496;7.210;2022-10-16T15:26:37;18.70;99.90
2967;DHT22;1493;51.496;7.210;2022-10-16T15:29:04;18.70;99.90
2967;DHT22;1493;51.496;7.210;2022-10-16T15:31:31;18.70;99.90
2967;DHT22;1493;51.496;7.210;2022-10-16T15:33:58;18.60;99.90
2967;DHT22;1493;51.496;7.210;2022-10-16T15:36:32;18.60;99.90
2967;DHT22;1493;51.496;7.210;2022-10-16T15:39:04;18.60;99.90
2967;DHT22;1493;51.496;7.210;2022-10-16T15:41:34;18.50;99.90
2967;DHT22;1493;51.496;7.210;2022-10-16T15:44:01;18.50;99.90
2967;DHT22;1493;51.496;7.210;2022-10-16T15:46:28;18.40;99.90
2967;DHT22;1493;51.496;7.210;2022-10-16T15:48:57;18.40;99.90
2967;DHT22;1493;51.496;7.210;2022-10-16T15:51:25;18.30;99.90
2967;DHT22;1493;51.496;7.210;2022-10-16T15:54:02;18.30;99.90
2967;DHT22;1493;51.496;7.210;2022-10-16T15:56:31;18.30;99.90
2967;DHT22;1493;51.496;7.210;2022-10-16T15:58:59;18.20;99.90
2967;DHT22;1493;51.496;7.210;2022-10-16T16:01:26;18.20;99.90
2967;DHT22;1493;51.496;7.210;2022-10-16T16:03:57;18.20;99.90
2967;DHT22;1493;51.496;7.210;2022-10-16T16:06:24;18.10;99.90
2967;DHT22;1493;51.496;7.210;2022-10-16T16:08:51;18.10;99.90
2967;DHT22;1493;51.496;7.210;2022-10-16T16:11:20;18.10;99.90
2967;DHT22;1493;51.496;7.210;2022-10-16T16:13:50;18.10;99.90
2967;DHT22;1493;51.496;7.210;2022-10-16T16:16:24;18.00;99.90
2967;DHT22;1493;51.496;7.210;2022-10-16T16:18:52;18.00;99.90
2967;DHT22;1493;51.496;7.210;2022-10-16T16:21:19;17.90;99.90
2967;DHT22;1493;51.496;7.210;2022-10-16T16:23:46;17.90;99.90
2967;DHT22;1493;51.496;7.210;2022-10-16T16:26:23;17.90;99.90